Time;durP1;ratioP1;P1;durP2;ratioP2;P2;SDS_P1;SDS_P2;PMS_P1;PMS_P2;Temp;Humidity;BMP_temperature;BMP_pressure;BME280_temperature;BME280_humidity;BME280_pressure;Samples;Min_cycle;Max_cycle;Signal;HPM_P1;HPM_P2
2021/06/30 00:00:20;;;;;;;;;;;;;;;17.04;81.36;99610.56;5072832;28;818;-61
2021/06/30 00:02:46;;;;;;;;;;;;;;;17.09;81.27;99608.00;5072761;28;821;-61
2021/06/30 00:05:14;;;;;;;;;;;;;;;17.16;81.50;99606.19;5072774;28;868;-60
2021/06/30 00:07:39;;;;;;;;;;;;;;;17.18;81.17;99598.13;5072637;28;909;-60
2021/06/30 00:10:08;;;;;;;;;;;;;;;17.09;81.19;99596.81;5071551;28;850;-60
2021/06/30 00:12:35;;;;;;;;;;;;;;;16.99;81.31;99594.41;5072557;28;1886;-60
2021/06/30 00:15:07;;;;;;;;;;;;;;;16.87;81.34;99598.78;5072518;28;822;-60
2021/06/30 00:17:34;;;;;;;;;;;;;;;16.76;81.41;99598.34;5072554;28;1046;-60
2021/06/30 00:20:01;;;;;;;;;;;;;;;16.76;81.25;99596.31;5072350;28;922;-60
2021/06/30 00:22:28;;;;;;;;;;;;;;;16.70;80.98;99596.09;5072404;28;830;-60
2021/06/30 00:24:54;;;;;;;;;;;;;;;16.63;81.14;99593.56;5072170;28;1215;-60
2021/06/30 00:27:21;;;;;;;;;;;;;;;16.65;81.03;99596.69;5072367;28;861;-60
2021/06/30 00:29:48;;;;;;;;;;;;;;;16.73;80.70;99594.44;5072202;28;878;-60
2021/06/30 00:32:14;;;;;;;;;;;;;;;16.80;80.50;99585.84;5072106;28;1913;-60
2021/06/30 00:34:40;;;;;;;;;;;;;;;16.85;79.87;99593.63;5072160;28;818;-60
2021/06/30 00:37:07;;;;;;;;;;;;;;;16.81;79.95;99595.00;5072134;28;806;-60
2021/06/30 00:39:33;;;;;;;;;;;;;;;16.79;80.00;99594.63;5072311;28;944;-60
2021/06/30 00:42:00;;;;;;;;;;;;;;;16.77;79.72;99589.53;5072044;28;806;-60
2021/06/30 00:44:33;;;;;;;;;;;;;;;16.76;79.82;99590.72;5072010;28;814;-60
2021/06/30 00:47:00;;;;;;;;;;;;;;;16.69;79.91;99591.75;5071802;28;936;-60
2021/06/30 00:49:25;;;;;;;;;;;;;;;16.67;80.00;99599.03;5071893;28;842;-60
2021/06/30 00:51:52;;;;;;;;;;;;;;;16.67;80.19;99594.22;5071915;28;857;-60
2021/06/30 00:54:18;;;;;;;;;;;;;;;16.70;80.42;99589.75;5071823;28;1910;-60
2021/06/30 00:56:45;;;;;;;;;;;;;;;16.86;80.18;99594.44;5071803;28;873;-60
2021/06/30 00:59:12;;;;;;;;;;;;;;;16.97;79.71;99596.88;5071818;28;791;-60
2021/06/30 01:01:40;;;;;;;;;;;;;;;16.97;79.55;99591.28;5071138;28;822;-60
2021/06/30 01:04:07;;;;;;;;;;;;;;;16.90;79.79;99587.50;5071712;28;864;-60
2021/06/30 01:06:33;;;;;;;;;;;;;;;16.87;80.21;99585.59;5071650;28;921;-60
2021/06/30 01:09:04;;;;;;;;;;;;;;;16.91;80.14;99582.69;5071682;28;852;-60
2021/06/30 01:11:31;;;;;;;;;;;;;;;17.00;79.99;99582.75;5071586;28;861;-60
2021/06/30 01:13:57;;;;;;;;;;;;;;;17.10;79.67;99583.63;5071747;28;1947;-60
2021/06/30 01:16:24;;;;;;;;;;;;;;;17.23;79.22;99586.38;5071485;28;806;-60
2021/06/30 01:18:50;;;;;;;;;;;;;;;17.33;79.20;99580.41;5071498;28;904;-60
2021/06/30 01:21:17;;;;;;;;;;;;;;;17.35;78.87;99571.56;5071474;28;837;-60
2021/06/30 01:23:44;;;;;;;;;;;;;;;17.32;79.09;99578.06;5071573;28;837;-60
2021/06/30 01:26:12;;;;;;;;;;;;;;;17.29;78.89;99573.38;5071357;28;1382;-60
2021/06/30 01:28:39;;;;;;;;;;;;;;;17.24;79.04;99579.53;5071468;28;862;-60
2021/06/30 01:31:06;;;;;;;;;;;;;;;17.17;78.96;99585.38;5071534;28;822;-60
2021/06/30 01:33:32;;;;;;;;;;;;;;;17.27;79.06;99579.41;5071299;28;1980;-60
2021/06/30 01:36:00;;;;;;;;;;;;;;;17.28;78.39;99585.78;5071412;28;829;-60
2021/06/30 01:38:27;;;;;;;;;;;;;;;17.16;78.77;99581.81;5071289;28;887;-60
2021/06/30 01:40:55;;;;;;;;;;;;;;;16.98;79.10;99587.25;5071395;28;810;-60
2021/06/30 01:43:22;;;;;;;;;;;;;;;16.83;79.61;99576.56;5071674;28;889;-60
2021/06/30 01:45:53;;;;;;;;;;;;;;;16.83;79.88;99579.34;5071237;28;833;-60
2021/06/30 01:48:19;;;;;;;;;;;;;;;16.89;79.63;99582.34;5071372;28;802;-59
2021/06/30 01:50:49;;;;;;;;;;;;;;;16.91;78.88;99580.66;5071398;28;900;-60
2021/06/30 01:53:18;;;;;;;;;;;;;;;16.90;78.88;99590.28;5071632;28;1889;-60
2021/06/30 01:55:45;;;;;;;;;;;;;;;16.86;78.71;99589.63;5071180;28;877;-60
2021/06/30 01:58:15;;;;;;;;;;;;;;;16.81;78.56;99590.19;5071267;28;818;-60
2021/06/30 02:00:41;;;;;;;;;;;;;;;16.77;78.82;99583.13;5071209;28;818;-60
2021/06/30 02:03:08;;;;;;;;;;;;;;;16.77;78.48;99586.72;5071210;28;908;-60
2021/06/30 02:05:34;;;;;;;;;;;;;;;16.79;78.27;99598.22;5071185;28;853;-60
2021/06/30 02:08:01;;;;;;;;;;;;;;;16.74;78.14;99593.97;5071373;28;932;-60
2021/06/30 02:10:28;;;;;;;;;;;;;;;16.69;78.19;99591.75;5071357;28;806;-60
2021/06/30 02:12:54;;;;;;;;;;;;;;;16.67;78.31;99590.66;5072660;28;1933;-60
2021/06/30 02:15:28;;;;;;;;;;;;;;;16.60;78.43;99602.84;5074798;28;834;-60
2021/06/30 02:17:56;;;;;;;;;;;;;;;16.61;78.22;99606.41;5074742;28;885;-60
2021/06/30 02:20:22;;;;;;;;;;;;;;;16.59;78.34;99604.03;5074767;28;833;-60
2021/06/30 02:22:49;;;;;;;;;;;;;;;16.48;78.35;99603.63;5074664;28;912;-60
2021/06/30 02:25:17;;;;;;;;;;;;;;;16.33;78.59;99608.88;5074431;28;1452;-60
2021/06/30 02:27:43;;;;;;;;;;;;;;;16.15;79.18;99611.44;5074652;28;834;-60
2021/06/30 02:30:14;;;;;;;;;;;;;;;16.12;79.62;99616.66;5074593;28;880;-60
2021/06/30 02:32:40;;;;;;;;;;;;;;;16.19;79.82;99614.88;5073241;28;1975;-60
2021/06/30 02:35:09;;;;;;;;;;;;;;;16.27;79.63;99624.59;5074437;28;969;-60
2021/06/30 02:37:35;;;;;;;;;;;;;;;16.29;79.59;99631.28;5074403;28;881;-60
2021/06/30 02:40:03;;;;;;;;;;;;;;;16.31;79.48;99628.06;5074456;28;822;-60
2021/06/30 02:42:29;;;;;;;;;;;;;;;16.33;79.66;99631.19;5074246;28;822;-60
2021/06/30 02:44:56;;;;;;;;;;;;;;;16.37;79.29;99633.88;5074200;28;790;-60
2021/06/30 02:47:22;;;;;;;;;;;;;;;16.42;79.22;99630.50;5074252;28;842;-60
2021/06/30 02:49:49;;;;;;;;;;;;;;;16.33;79.43;99628.41;5074241;28;842;-60
2021/06/30 02:52:15;;;;;;;;;;;;;;;16.31;79.35;99628.06;5074426;28;1953;-60
2021/06/30 02:54:41;;;;;;;;;;;;;;;16.29;79.42;99639.66;5074098;28;908;-60
2021/06/30 02:57:07;;;;;;;;;;;;;;;16.23;79.68;99644.22;5074118;28;838;-60
2021/06/30 02:59:33;;;;;;;;;;;;;;;16.18;79.74;99642.00;5074065;28;892;-60
2021/06/30 03:02:00;;;;;;;;;;;;;;;16.20;79.92;99641.56;5074026;28;998;-60
2021/06/30 03:04:26;;;;;;;;;;;;;;;16.28;79.94;99635.31;5074008;28;878;-60
2021/06/30 03:06:53;;;;;;;;;;;;;;;16.36;79.92;99635.09;5073938;28;826;-60
2021/06/30 03:09:21;;;;;;;;;;;;;;;16.44;79.81;99642.00;5073854;28;851;-60
2021/06/30 03:11:50;;;;;;;;;;;;;;;16.41;79.74;99640.91;5073860;28;854;-60
2021/06/30 03:14:19;;;;;;;;;;;;;;;16.40;79.79;99650.47;5073780;28;1886;-60
2021/06/30 03:16:47;;;;;;;;;;;;;;;16.37;79.92;99650.59;5073750;28;1006;-60
2021/06/30 03:19:14;;;;;;;;;;;;;;;16.35;80.11;99651.03;5089162;28;1305;-60
2021/06/30 03:21:41;;;;;;;;;;;;;;;16.37;80.16;99647.81;5073621;28;814;-60
2021/06/30 03:24:08;;;;;;;;;;;;;;;16.48;80.58;99645.47;5073072;28;919;-60
2021/06/30 03:26:35;;;;;;;;;;;;;;;16.72;80.32;99645.88;5073166;28;1260;-60
2021/06/30 03:29:02;;;;;;;;;;;;;;;17.03;79.87;99646.09;5072183;28;1274;-60
2021/06/30 03:31:29;;;;;;;;;;;;;;;17.53;78.87;99641.53;5073448;28;846;-60
2021/06/30 03:33:56;;;;;;;;;;;;;;;17.94;77.89;99641.69;5073342;28;1996;-60
2021/06/30 03:36:23;;;;;;;;;;;;;;;18.15;77.20;99635.28;5073475;28;814;-60
2021/06/30 03:38:50;;;;;;;;;;;;;;;18.44;76.83;99636.19;5073306;28;833;-60
2021/06/30 03:41:16;;;;;;;;;;;;;;;18.58;76.75;99641.19;5088941;28;1305;-60
2021/06/30 03:43:43;;;;;;;;;;;;;;;18.69;77.01;99632.34;5073181;28;919;-60
2021/06/30 03:46:10;;;;;;;;;;;;;;;18.76;77.02;99632.09;5071818;28;1667;-60
2021/06/30 03:48:36;;;;;;;;;;;;;;;18.86;76.94;99635.69;5073084;28;849;-60
2021/06/30 03:51:03;;;;;;;;;;;;;;;18.93;76.97;99636.19;5073035;28;819;-60
2021/06/30 03:53:30;;;;;;;;;;;;;;;19.03;76.99;99634.16;5072924;28;1885;-60
2021/06/30 03:55:56;;;;;;;;;;;;;;;19.09;77.00;99635.09;5072903;28;822;-60
2021/06/30 03:58:23;;;;;;;;;;;;;;;19.17;76.96;99635.59;5072911;28;944;-60
2021/06/30 04:00:50;;;;;;;;;;;;;;;19.35;76.63;99646.00;5072768;28;933;-60
2021/06/30 04:03:20;;;;;;;;;;;;;;;19.58;75.85;99636.22;5072800;28;849;-60
2021/06/30 04:05:46;;;;;;;;;;;;;;;19.83;75.29;99642.75;5072889;28;850;-60
2021/06/30 04:08:12;;;;;;;;;;;;;;;20.16;74.67;99635.19;5072737;28;802;-60
2021/06/30 04:10:39;;;;;;;;;;;;;;;20.51;73.87;99639.56;5072679;28;806;-60
2021/06/30 04:13:06;;;;;;;;;;;;;;;20.72;73.18;99640.59;5072373;28;1897;-61
2021/06/30 04:15:32;;;;;;;;;;;;;;;20.91;72.60;99638.44;5072723;28;787;-61
2021/06/30 04:18:00;;;;;;;;;;;;;;;21.07;72.28;99640.81;5072580;28;920;-61
2021/06/30 04:20:26;;;;;;;;;;;;;;;21.35;71.57;99635.00;5072604;28;870;-61
2021/06/30 04:22:53;;;;;;;;;;;;;;;21.90;70.00;99631.69;5072756;28;909;-61
2021/06/30 04:25:19;;;;;;;;;;;;;;;22.56;68.64;99633.28;5072245;28;1296;-61
2021/06/30 04:27:46;;;;;;;;;;;;;;;23.20;66.96;99633.66;5072325;28;858;-61
2021/06/30 04:30:12;;;;;;;;;;;;;;;23.96;65.04;99641.13;5072277;28;897;-61
2021/06/30 04:32:39;;;;;;;;;;;;;;;24.55;63.51;99640.59;5072179;28;1910;-61
2021/06/30 04:35:06;;;;;;;;;;;;;;;25.03;62.79;99636.25;5072033;28;857;-61
2021/06/30 04:37:33;;;;;;;;;;;;;;;25.57;60.79;99630.53;5071778;28;830;-61
2021/06/30 04:40:00;;;;;;;;;;;;;;;26.31;59.22;99634.25;5072038;28;830;-61
2021/06/30 04:42:26;;;;;;;;;;;;;;;26.68;58.13;99639.63;5071988;28;894;-61
2021/06/30 04:44:53;;;;;;;;;;;;;;;26.61;58.65;99642.22;5072031;28;909;-61
2021/06/30 04:47:20;;;;;;;;;;;;;;;26.15;59.23;99637.84;5071893;28;865;-61
2021/06/30 04:49:45;;;;;;;;;;;;;;;25.57;60.92;99627.72;5071975;28;882;-61
2021/06/30 04:52:12;;;;;;;;;;;;;;;25.17;62.11;99637.34;5071987;28;809;-61
2021/06/30 04:54:39;;;;;;;;;;;;;;;24.88;63.11;99630.78;5071800;28;1968;-62
2021/06/30 04:57:06;;;;;;;;;;;;;;;24.75;63.49;99636.88;5071869;28;842;-61
2021/06/30 04:59:32;;;;;;;;;;;;;;;24.86;63.63;99630.53;5072140;28;799;-62
2021/06/30 05:01:59;;;;;;;;;;;;;;;25.23;62.73;99638.16;5071833;28;889;-62
2021/06/30 05:04:26;;;;;;;;;;;;;;;25.47;61.85;99644.13;5071788;28;877;-61
2021/06/30 05:12:38;;;;;;;;;;;;;;;27.38;58.27;99653.84;6213526;22;1687;-60
2021/06/30 05:15:06;;;;;;;;;;;;;;;28.45;55.00;99652.34;5029994;28;1483;-62
2021/06/30 05:17:31;;;;;;;;;;;;;;;29.61;52.58;99655.69;5031703;28;837;-62
2021/06/30 05:19:57;;;;;;;;;;;;;;;30.16;50.97;99646.84;5031649;28;874;-63
2021/06/30 05:22:24;;;;;;;;;;;;;;;30.51;48.94;99652.25;5031565;28;814;-63
2021/06/30 05:24:51;;;;;;;;;;;;;;;31.09;47.12;99650.63;5031594;28;977;-63
2021/06/30 05:27:17;;;;;;;;;;;;;;;31.70;46.35;99647.78;5031614;28;869;-63
2021/06/30 05:29:44;;;;;;;;;;;;;;;32.43;44.31;99653.06;5031829;28;857;-64
2021/06/30 05:32:14;;;;;;;;;;;;;;;32.90;43.10;99661.44;5031598;28;853;-64
2021/06/30 05:34:41;;;;;;;;;;;;;;;33.26;42.06;99657.81;5031475;28;1910;-64
2021/06/30 05:37:07;;;;;;;;;;;;;;;33.58;41.67;99662.34;5031670;28;905;-64
2021/06/30 05:39:34;;;;;;;;;;;;;;;33.96;40.87;99655.97;5031662;28;873;-64
2021/06/30 05:42:00;;;;;;;;;;;;;;;34.06;40.48;99659.06;5031452;28;877;-64
2021/06/30 05:44:27;;;;;;;;;;;;;;;34.32;40.07;99661.56;5031369;28;822;-64
2021/06/30 05:46:54;;;;;;;;;;;;;;;34.60;39.66;99671.31;5031564;28;819;-64
2021/06/30 05:49:19;;;;;;;;;;;;;;;34.80;38.68;99663.09;5035422;28;842;-64
2021/06/30 05:51:46;;;;;;;;;;;;;;;34.90;38.03;99664.78;5035376;28;866;-64
2021/06/30 05:54:12;;;;;;;;;;;;;;;34.90;37.44;99664.03;5035583;28;1949;-64
2021/06/30 05:56:39;;;;;;;;;;;;;;;35.24;36.10;99662.81;5035344;28;810;-64
2021/06/30 05:59:06;;;;;;;;;;;;;;;35.56;35.76;99668.59;5035196;28;893;-64
2021/06/30 06:01:33;;;;;;;;;;;;;;;35.80;36.11;99660.66;5035221;28;916;-64
2021/06/30 06:04:00;;;;;;;;;;;;;;;36.09;34.25;99663.16;5035159;28;857;-64
2021/06/30 06:06:27;;;;;;;;;;;;;;;36.35;34.13;99664.69;5035059;28;846;-64
2021/06/30 06:08:53;;;;;;;;;;;;;;;36.61;32.99;99659.69;5035429;28;826;-64
2021/06/30 06:11:20;;;;;;;;;;;;;;;36.73;31.26;99666.50;5034956;28;826;-65
2021/06/30 06:13:46;;;;;;;;;;;;;;;36.55;31.23;99660.69;5044038;28;1882;-65
2021/06/30 06:16:14;;;;;;;;;;;;;;;36.47;29.57;99670.75;5054868;28;827;-64
2021/06/30 06:18:41;;;;;;;;;;;;;;;36.42;30.02;99663.09;5054730;28;921;-64
2021/06/30 06:21:07;;;;;;;;;;;;;;;36.66;31.30;99670.19;5055041;28;858;-65
2021/06/30 06:23:33;;;;;;;;;;;;;;;36.73;31.76;99667.25;5054736;28;852;-64
2021/06/30 06:26:00;;;;;;;;;;;;;;;36.66;31.66;99665.22;5054703;28;802;-64
2021/06/30 06:28:31;;;;;;;;;;;;;;;36.26;31.93;99663.25;5054738;28;838;-64
2021/06/30 06:30:58;;;;;;;;;;;;;;;35.77;32.70;99653.19;5054544;28;847;-64
2021/06/30 06:33:24;;;;;;;;;;;;;;;35.85;33.27;99650.25;5054414;28;1977;-64
2021/06/30 06:35:51;;;;;;;;;;;;;;;36.39;32.16;99650.66;5054434;28;946;-64
2021/06/30 06:38:18;;;;;;;;;;;;;;;36.95;31.72;99659.72;5054493;28;853;-64
2021/06/30 06:40:45;;;;;;;;;;;;;;;37.18;31.85;99658.75;5054371;28;818;-64
2021/06/30 06:43:11;;;;;;;;;;;;;;;37.66;31.28;99649.72;5054490;28;803;-66
2021/06/30 06:45:38;;;;;;;;;;;;;;;37.55;30.65;99656.72;5054269;28;818;-64
2021/06/30 06:48:05;;;;;;;;;;;;;;;37.50;30.45;99649.13;5054537;28;814;-65
2021/06/30 06:50:32;;;;;;;;;;;;;;;37.65;31.72;99648.16;5054114;28;810;-65
2021/06/30 06:52:58;;;;;;;;;;;;;;;37.97;31.21;99638.47;5054279;28;1886;-65
2021/06/30 06:55:26;;;;;;;;;;;;;;;37.68;31.03;99646.22;5054299;28;803;-65
2021/06/30 06:57:52;;;;;;;;;;;;;;;37.45;31.49;99637.84;5053970;28;854;-64
2021/06/30 07:00:19;;;;;;;;;;;;;;;37.62;31.77;99642.84;5053322;28;827;-65
2021/06/30 07:02:45;;;;;;;;;;;;;;;37.96;31.42;99634.06;5053933;28;815;-64
2021/06/30 07:05:12;;;;;;;;;;;;;;;38.23;30.92;99644.06;5053977;28;843;-65
2021/06/30 07:07:45;;;;;;;;;;;;;;;38.56;29.64;99635.81;5053899;28;836;-64
2021/06/30 07:10:12;;;;;;;;;;;;;;;38.71;29.87;99638.44;5053868;28;829;-65
2021/06/30 07:12:38;;;;;;;;;;;;;;;38.54;30.15;99638.56;5053725;28;1925;-65
2021/06/30 07:15:05;;;;;;;;;;;;;;;38.43;30.26;99630.44;5053559;28;1300;-64
2021/06/30 07:17:33;;;;;;;;;;;;;;;38.91;30.17;99641.31;5053738;28;830;-65
2021/06/30 07:20:00;;;;;;;;;;;;;;;39.42;30.58;99627.81;5053572;28;861;-65
2021/06/30 07:22:27;;;;;;;;;;;;;;;39.31;30.37;99639.97;5053691;28;811;-64
2021/06/30 07:24:53;;;;;;;;;;;;;;;39.09;30.36;99642.72;5053557;28;810;-66
2021/06/30 07:27:20;;;;;;;;;;;;;;;39.25;30.68;99631.59;5053561;28;884;-65
2021/06/30 07:29:46;;;;;;;;;;;;;;;39.24;29.64;99635.84;5053407;28;889;-65
2021/06/30 07:32:12;;;;;;;;;;;;;;;38.68;30.83;99639.63;5053504;28;810;-65
2021/06/30 07:34:39;;;;;;;;;;;;;;;38.78;30.60;99634.63;5053287;28;1967;-65
2021/06/30 07:37:06;;;;;;;;;;;;;;;39.11;29.93;99634.19;5053337;28;838;-65
2021/06/30 07:39:32;;;;;;;;;;;;;;;39.20;30.35;99633.44;5053621;28;886;-66
2021/06/30 07:42:00;;;;;;;;;;;;;;;39.46;29.59;99633.88;5053081;28;928;-66
2021/06/30 07:44:26;;;;;;;;;;;;;;;39.59;30.34;99624.72;5053273;28;818;-65
2021/06/30 07:46:53;;;;;;;;;;;;;;;39.70;29.81;99625.44;5053160;28;893;-65
2021/06/30 07:49:19;;;;;;;;;;;;;;;39.26;29.49;99638.13;5053288;28;868;-66
2021/06/30 07:51:46;;;;;;;;;;;;;;;39.25;29.24;99630.84;5053030;28;866;-65
2021/06/30 07:54:13;;;;;;;;;;;;;;;39.68;28.27;99625.31;5052975;28;1878;-66
2021/06/30 07:56:39;;;;;;;;;;;;;;;39.62;28.52;99631.41;5052971;28;885;-65
2021/06/30 07:59:07;;;;;;;;;;;;;;;39.77;28.40;99624.50;5052931;28;870;-66
2021/06/30 08:01:34;;;;;;;;;;;;;;;39.98;28.87;99620.94;5052871;28;881;-65
2021/06/30 08:04:01;;;;;;;;;;;;;;;40.31;28.31;99620.34;5053027;28;893;-65
2021/06/30 08:06:27;;;;;;;;;;;;;;;40.24;28.72;99619.13;5052789;28;892;-65
2021/06/30 08:08:54;;;;;;;;;;;;;;;40.37;29.36;99618.66;5052723;28;1029;-65
2021/06/30 08:11:23;;;;;;;;;;;;;;;40.36;28.44;99619.25;5052446;28;818;-65
2021/06/30 08:13:50;;;;;;;;;;;;;;;40.57;26.99;99615.63;5052420;28;1948;-66
2021/06/30 08:16:18;;;;;;;;;;;;;;;40.45;27.32;99609.75;5052755;28;982;-65
2021/06/30 08:18:45;;;;;;;;;;;;;;;39.79;26.94;99616.72;5052579;28;831;-66
2021/06/30 08:21:12;;;;;;;;;;;;;;;39.17;28.26;99614.41;5052497;28;850;-66
2021/06/30 08:23:38;;;;;;;;;;;;;;;39.37;28.42;99606.50;5052436;28;863;-66
2021/06/30 08:26:07;;;;;;;;;;;;;;;39.16;27.91;99612.16;5052342;28;830;-65
2021/06/30 08:28:35;;;;;;;;;;;;;;;38.82;29.33;99616.84;5052388;28;838;-66
2021/06/30 08:31:02;;;;;;;;;;;;;;;38.71;29.50;99608.78;5052282;28;826;-65
2021/06/30 08:33:29;;;;;;;;;;;;;;;38.39;29.35;99610.69;5052255;28;1914;-65
2021/06/30 08:35:56;;;;;;;;;;;;;;;38.42;30.45;99606.59;5052251;28;885;-65
2021/06/30 08:38:23;;;;;;;;;;;;;;;38.37;28.69;99608.41;5052243;28;885;-65
2021/06/30 08:40:56;;;;;;;;;;;;;;;37.84;30.28;99610.03;5052039;28;866;-63
2021/06/30 08:43:23;;;;;;;;;;;;;;;37.85;30.68;99605.78;5052345;28;865;-64
2021/06/30 08:45:50;;;;;;;;;;;;;;;37.66;29.99;99606.47;5052489;28;849;-65
2021/06/30 08:48:17;;;;;;;;;;;;;;;37.26;30.42;99612.56;5052467;28;803;-65
2021/06/30 08:50:44;;;;;;;;;;;;;;;37.00;31.46;99594.63;5052148;28;850;-65
2021/06/30 08:53:15;;;;;;;;;;;;;;;37.06;31.92;99600.84;5051913;28;2007;-64
2021/06/30 08:55:45;;;;;;;;;;;;;;;37.26;31.14;99607.56;5052078;28;830;-63
2021/06/30 08:58:12;;;;;;;;;;;;;;;36.99;31.07;99610.34;5051969;28;897;-66
2021/06/30 09:00:41;;;;;;;;;;;;;;;37.02;31.37;99599.75;5052096;28;826;-65
2021/06/30 09:03:12;;;;;;;;;;;;;;;37.55;32.66;99593.31;5033970;28;1550;-64
2021/06/30 09:08:19;;;;;;;;;;;;;;;37.83;32.33;99602.72;5051687;28;711;-65
2021/06/30 09:10:46;;;;;;;;;;;;;;;37.70;30.69;99597.34;5051674;28;830;-66
2021/06/30 09:13:20;;;;;;;;;;;;;;;37.60;30.97;99591.56;5051276;28;1890;-64
2021/06/30 09:15:56;;;;;;;;;;;;;;;37.03;31.96;99593.41;5051923;28;889;-64
2021/06/30 09:18:29;;;;;;;;;;;;;;;37.02;32.65;99594.75;5051887;28;806;-65
2021/06/30 09:21:14;;;;;;;;;;;;;;;36.79;31.68;99581.41;5051509;28;834;-66
2021/06/30 09:23:59;;;;;;;;;;;;;;;36.83;32.08;99583.88;5051066;28;893;-65
2021/06/30 09:26:26;;;;;;;;;;;;;;;36.58;32.89;99581.03;5051731;28;873;-66
2021/06/30 09:29:05;;;;;;;;;;;;;;;36.14;32.69;99578.75;5051525;28;886;-65
2021/06/30 09:31:32;;;;;;;;;;;;;;;35.94;33.69;99580.63;5051497;28;810;-66
2021/06/30 09:33:58;;;;;;;;;;;;;;;36.02;35.12;99581.34;5051539;28;1914;-65
2021/06/30 09:36:26;;;;;;;;;;;;;;;36.08;34.35;99578.22;5051376;28;858;-66
2021/06/30 09:38:52;;;;;;;;;;;;;;;36.22;33.14;99576.59;5051293;28;921;-65
2021/06/30 09:41:25;;;;;;;;;;;;;;;36.22;34.21;99576.59;5051408;28;826;-65
2021/06/30 09:44:00;;;;;;;;;;;;;;;36.02;34.62;99569.84;5051339;28;822;-66
2021/06/30 09:46:27;;;;;;;;;;;;;;;35.85;34.11;99561.13;5051327;28;834;-65
2021/06/30 09:48:54;;;;;;;;;;;;;;;35.59;35.95;99560.34;5051360;28;909;-66
2021/06/30 09:51:21;;;;;;;;;;;;;;;35.54;35.84;99553.47;5051218;28;845;-65
2021/06/30 09:53:48;;;;;;;;;;;;;;;35.49;36.08;99557.34;5051170;28;1889;-66
2021/06/30 09:56:34;;;;;;;;;;;;;;;35.34;37.61;99551.72;5049833;28;1390;-66
2021/06/30 09:59:10;;;;;;;;;;;;;;;35.22;36.70;99550.63;5051239;28;811;-64
2021/06/30 10:01:36;;;;;;;;;;;;;;;34.56;37.25;99554.06;5051180;28;855;-64
2021/06/30 10:04:03;;;;;;;;;;;;;;;34.19;38.85;99552.03;5051136;28;783;-64
2021/06/30 10:06:34;;;;;;;;;;;;;;;34.13;37.47;99547.25;5051074;28;846;-66
2021/06/30 10:09:03;;;;;;;;;;;;;;;34.09;39.01;99543.22;5051026;28;807;-64
2021/06/30 10:11:30;;;;;;;;;;;;;;;34.14;38.49;99548.00;5050970;28;882;-64
2021/06/30 10:13:58;;;;;;;;;;;;;;;33.89;37.63;99547.81;5050855;28;1959;-64
2021/06/30 10:16:24;;;;;;;;;;;;;;;33.73;37.99;99552.75;5051252;28;843;-66
2021/06/30 10:18:52;;;;;;;;;;;;;;;33.49;37.05;99545.44;5051094;28;1073;-65
2021/06/30 10:21:20;;;;;;;;;;;;;;;33.40;38.43;99543.91;5050922;28;878;-64
2021/06/30 10:23:47;;;;;;;;;;;;;;;33.39;38.06;99530.16;5050871;28;834;-64
2021/06/30 10:26:15;;;;;;;;;;;;;;;33.33;39.25;99533.22;5049648;28;803;-65
2021/06/30 10:28:43;;;;;;;;;;;;;;;33.46;39.52;99527.31;5051250;28;780;-65
2021/06/30 10:31:10;;;;;;;;;;;;;;;33.68;38.26;99533.66;5051622;28;834;-66
2021/06/30 10:33:41;;;;;;;;;;;;;;;33.61;37.83;99532.31;5052076;28;1910;-65
2021/06/30 10:36:10;;;;;;;;;;;;;;;33.53;38.77;99529.41;5054447;28;874;-65
2021/06/30 10:38:51;;;;;;;;;;;;;;;33.45;38.62;99527.88;5054403;28;838;-65
2021/06/30 10:41:36;;;;;;;;;;;;;;;33.67;40.16;99526.38;5055006;28;810;-64
2021/06/30 10:44:13;;;;;;;;;;;;;;;33.85;37.76;99521.63;5054238;28;880;-65
2021/06/30 10:46:40;;;;;;;;;;;;;;;33.79;39.07;99521.81;5054301;28;838;-65
2021/06/30 10:49:16;;;;;;;;;;;;;;;33.65;40.15;99512.66;5054294;28;827;-64
2021/06/30 10:51:47;;;;;;;;;;;;;;;33.51;40.27;99519.84;5054248;28;862;-65
2021/06/30 10:54:32;;;;;;;;;;;;;;;33.55;40.47;99526.75;5054087;28;1939;-63
2021/06/30 10:57:27;;;;;;;;;;;;;;;33.40;40.69;99515.25;5054150;28;900;-64
2021/06/30 11:00:04;;;;;;;;;;;;;;;33.40;41.70;99514.50;5049015;28;1356;-62
2021/06/30 11:02:32;;;;;;;;;;;;;;;33.25;41.27;99520.97;5053950;28;855;-62
2021/06/30 11:05:14;;;;;;;;;;;;;;;33.13;40.41;99509.84;5053893;28;834;-61
2021/06/30 11:07:45;;;;;;;;;;;;;;;32.94;40.99;99495.81;5053887;28;783;-63
2021/06/30 11:10:18;;;;;;;;;;;;;;;32.74;42.82;99497.47;5054147;28;815;-63
2021/06/30 11:12:50;;;;;;;;;;;;;;;32.67;41.46;99494.59;5053428;28;1893;-63
2021/06/30 11:15:35;;;;;;;;;;;;;;;32.57;41.04;99488.63;5053985;28;790;-64
2021/06/30 11:18:03;;;;;;;;;;;;;;;32.45;42.60;99481.66;5053717;28;814;-63
2021/06/30 11:20:48;;;;;;;;;;;;;;;32.61;40.93;99486.16;5054291;28;809;-63
2021/06/30 11:23:18;;;;;;;;;;;;;;;32.75;42.11;99486.78;5053606;28;831;-62
2021/06/30 11:25:45;;;;;;;;;;;;;;;33.22;42.04;99487.72;5053741;28;1211;-62
2021/06/30 11:28:38;;;;;;;;;;;;;;;33.49;42.31;99482.44;5054121;28;783;-64
2021/06/30 11:31:23;;;;;;;;;;;;;;;33.40;40.29;99480.13;5053586;28;834;-63
2021/06/30 11:34:08;;;;;;;;;;;;;;;33.31;39.99;99476.50;5053827;28;1914;-62
2021/06/30 11:36:37;;;;;;;;;;;;;;;33.50;41.19;99469.63;5053225;28;904;-63
2021/06/30 11:39:08;;;;;;;;;;;;;;;33.68;40.61;99476.34;5053618;28;877;-64
2021/06/30 11:41:49;;;;;;;;;;;;;;;34.00;41.12;99475.00;5053339;28;886;-65
2021/06/30 11:44:18;;;;;;;;;;;;;;;34.21;40.24;99466.19;5053114;28;929;-63
2021/06/30 11:46:46;;;;;;;;;;;;;;;33.88;40.31;99481.09;5053094;28;794;-62
2021/06/30 11:49:16;;;;;;;;;;;;;;;33.89;40.80;99476.91;5053335;28;822;-64
2021/06/30 11:51:43;;;;;;;;;;;;;;;34.09;40.41;99478.03;5053497;28;874;-62
2021/06/30 11:54:15;;;;;;;;;;;;;;;34.43;40.09;99473.97;5052957;28;1956;-61
2021/06/30 11:56:42;;;;;;;;;;;;;;;34.24;38.59;99462.91;5053196;28;985;-64
2021/06/30 11:59:19;;;;;;;;;;;;;;;34.00;40.67;99461.41;5053082;28;848;-62
2021/06/30 12:01:47;;;;;;;;;;;;;;;34.22;40.55;99456.25;5052867;28;854;-63
2021/06/30 12:04:14;;;;;;;;;;;;;;;34.29;41.19;99464.84;5052843;28;831;-61
2021/06/30 12:06:41;;;;;;;;;;;;;;;34.41;39.95;99458.69;5052657;28;854;-60
2021/06/30 12:09:10;;;;;;;;;;;;;;;34.38;39.30;99459.84;5052806;28;807;-62
2021/06/30 12:11:37;;;;;;;;;;;;;;;34.59;39.25;99463.22;5052879;28;823;-61
2021/06/30 12:14:09;;;;;;;;;;;;;;;34.71;40.53;99457.81;5031352;28;1889;-62
2021/06/30 12:16:38;;;;;;;;;;;;;;;34.99;39.63;99450.97;5032729;28;795;-62
2021/06/30 12:19:09;;;;;;;;;;;;;;;35.04;39.08;99447.13;5032997;28;889;-61
2021/06/30 12:21:36;;;;;;;;;;;;;;;35.00;38.63;99448.88;5032633;28;874;-60
2021/06/30 12:24:03;;;;;;;;;;;;;;;35.11;39.13;99446.31;5032533;28;914;-61
2021/06/30 12:26:29;;;;;;;;;;;;;;;35.40;39.42;99445.16;5032571;28;826;-61
2021/06/30 12:28:56;;;;;;;;;;;;;;;35.76;38.31;99441.81;5032452;28;811;-60
2021/06/30 12:31:22;;;;;;;;;;;;;;;35.63;36.89;99430.63;5032803;28;850;-60
2021/06/30 12:33:49;;;;;;;;;;;;;;;35.62;37.66;99434.84;5032312;28;1930;-62
2021/06/30 12:36:16;;;;;;;;;;;;;;;35.82;38.96;99433.72;5032282;28;791;-61
2021/06/30 12:38:44;;;;;;;;;;;;;;;36.04;37.64;99428.31;5032303;28;894;-61
2021/06/30 12:41:11;;;;;;;;;;;;;;;35.86;37.17;99425.44;5032286;28;897;-61
2021/06/30 12:43:38;;;;;;;;;;;;;;;35.87;37.17;99432.72;5032284;28;833;-61
2021/06/30 12:46:14;;;;;;;;;;;;;;;35.61;38.27;99416.06;5032259;28;810;-61
2021/06/30 12:48:41;;;;;;;;;;;;;;;35.54;38.84;99418.41;5032208;28;861;-61
2021/06/30 12:51:11;;;;;;;;;;;;;;;35.70;37.64;99410.47;5032181;28;877;-61
2021/06/30 12:53:40;;;;;;;;;;;;;;;35.80;37.92;99419.19;5032150;28;2016;-62
2021/06/30 12:56:10;;;;;;;;;;;;;;;35.87;37.71;99412.59;5031941;28;826;-63
2021/06/30 12:58:48;;;;;;;;;;;;;;;35.92;37.43;99413.69;5031407;28;846;-62
2021/06/30 13:01:24;;;;;;;;;;;;;;;35.89;37.50;99421.41;5031986;28;834;-61
2021/06/30 13:03:52;;;;;;;;;;;;;;;35.81;37.35;99420.72;5031911;28;842;-61
2021/06/30 13:06:31;;;;;;;;;;;;;;;35.82;37.24;99418.59;5031854;28;885;-64
2021/06/30 13:08:57;;;;;;;;;;;;;;;35.96;37.84;99420.56;5031845;28;830;-61
2021/06/30 13:11:23;;;;;;;;;;;;;;;36.13;37.05;99416.94;5031793;28;857;-61
2021/06/30 13:13:56;;;;;;;;;;;;;;;36.02;37.59;99423.19;5030228;28;1886;-61
2021/06/30 13:16:23;;;;;;;;;;;;;;;35.84;38.14;99410.91;5031950;28;972;-60
2021/06/30 13:18:54;;;;;;;;;;;;;;;35.86;37.99;99413.94;5031786;28;807;-61